Time;durP1;ratioP1;P1;durP2;ratioP2;P2;SDS_P1;SDS_P2;PMS_P1;PMS_P2;Temp;Humidity;BMP_temperature;BMP_pressure;BME280_temperature;BME280_humidity;BME280_pressure;Samples;Min_cycle;Max_cycle;Signal;HPM_P1;HPM_P2
2023/09/19 00:00:13;;;;;;;11.50;9.00;;;;;;;20.15;66.64;98391.95;232916;215;145539;-58
2023/09/19 00:05:39;;;;;;;12.60;10.20;;;;;;;20.19;66.66;98391.55;232719;215;140937;-58
2023/09/19 00:11:21;;;;;;;13.10;10.80;;;;;;;20.25;66.50;98390.65;231303;225;723978;-58
2023/09/19 00:16:24;;;;;;;15.50;10.80;;;;;;;20.24;66.31;98390.68;232533;218;138721;-58
2023/09/19 00:21:32;;;;;;;14.50;10.90;;;;;;;20.25;66.46;98388.59;232503;218;144055;-60
2023/09/19 00:26:38;;;;;;;12.90;10.80;;;;;;;20.25;66.50;98385.25;232893;217;138804;-57
2023/09/19 00:31:43;;;;;;;14.80;10.50;;;;;;;20.23;66.44;98384.58;232878;216;137470;-60
2023/09/19 00:36:52;;;;;;;17.00;11.20;;;;;;;20.19;66.84;98382.66;233059;216;146838;-56
2023/09/19 00:41:57;;;;;;;13.80;9.70;;;;;;;20.16;66.80;98374.94;232936;216;140137;-59
2023/09/19 00:47:03;;;;;;;16.00;9.30;;;;;;;20.11;66.93;98372.45;232960;216;138615;-58
2023/09/19 00:52:10;;;;;;;15.00;9.00;;;;;;;20.09;67.19;98375.86;232945;216;144501;-59
2023/09/19 00:57:19;;;;;;;12.20;9.90;;;;;;;20.13;67.50;98375.82;232854;216;139579;-60
2023/09/19 01:02:27;;;;;;;15.00;10.40;;;;;;;20.16;67.38;98377.80;232922;216;137556;-59
2023/09/19 01:07:35;;;;;;;17.20;11.70;;;;;;;20.19;67.13;98377.83;232823;216;145453;-61
2023/09/19 01:13:05;;;;;;;14.50;11.80;;;;;;;20.25;67.08;98379.34;232915;216;139585;-60
2023/09/19 01:18:23;;;;;;;23.80;12.20;;;;;;;20.29;67.19;98379.02;232971;216;136967;-61
2023/09/19 01:23:32;;;;;;;18.50;12.10;;;;;;;20.29;67.56;98379.77;232809;215;145977;-62
2023/09/19 01:29:13;;;;;;;17.10;11.70;;;;;;;20.24;68.58;98376.30;232664;215;139620;-59
2023/09/19 01:34:20;;;;;;;17.80;10.60;;;;;;;20.16;70.16;98352.58;232731;215;138040;-59
2023/09/19 01:39:25;;;;;;;15.60;10.50;;;;;;;20.15;70.59;98355.41;232646;215;146083;-58
2023/09/19 01:44:42;;;;;;;20.30;12.70;;;;;;;20.17;71.44;98345.48;232729;215;139799;-58
2023/09/19 01:50:03;;;;;;;16.70;12.40;;;;;;;20.04;72.15;98348.11;232803;214;137086;-57
2023/09/19 01:55:10;;;;;;;19.70;12.30;;;;;;;19.95;73.22;98342.84;232727;215;147039;-55
2023/09/19 04:05:50;;;;;;;13.20;11.40;;;;;;;20.37;78.45;98226.44;231444;224;700157;-58
2023/09/19 04:10:55;;;;;;;14.10;11.40;;;;;;;20.35;78.33;98217.88;232903;216;137201;-59
2023/09/19 04:16:00;;;;;;;;;;;;;;;20.34;78.12;98215.95;232625;214;144010;-61
2023/09/19 04:21:06;;;;;;;79.70;68.60;;;;;;;20.29;78.35;98215.46;232792;214;138735;-58
2023/09/19 04:26:12;;;;;;;14.50;11.60;;;;;;;20.24;78.72;98214.04;232722;214;138375;-56
2023/09/19 04:31:19;;;;;;;;;;;;;;;20.19;78.78;98219.33;232862;214;143693;-56
2023/09/19 04:36:22;;;;;;;13.40;10.60;;;;;;;20.15;79.05;98217.96;232691;214;139080;-59
2023/09/19 04:41:41;;;;;;;14.90;12.40;;;;;;;20.16;79.36;98212.25;232797;214;138197;-59
2023/09/19 04:46:46;;;;;;;16.60;12.70;;;;;;;20.19;79.37;98218.35;232726;214;144177;-58
2023/09/19 04:51:50;;;;;;;17.00;13.70;;;;;;;20.22;79.29;98220.23;232760;214;140775;-57
2023/09/19 04:56:55;;;;;;;17.70;13.50;;;;;;;20.18;79.43;98220.80;232618;214;136998;-58
2023/09/19 05:02:01;;;;;;;15.10;12.70;;;;;;;20.26;79.08;98233.95;232718;214;145844;-59
2023/09/19 05:07:10;;;;;;;18.10;13.70;;;;;;;20.26;79.20;98247.63;232730;214;139954;-58
2023/09/19 05:12:18;;;;;;;15.00;12.70;;;;;;;20.29;79.46;98250.94;232777;214;137224;-59
2023/09/19 05:17:22;;;;;;;15.20;12.30;;;;;;;20.30;79.31;98248.87;232897;215;146765;-58
2023/09/19 05:22:29;;;;;;;14.20;11.60;;;;;;;20.29;79.29;98246.91;232740;215;139070;-58
2023/09/19 05:27:33;;;;;;;15.20;10.10;;;;;;;20.26;79.60;98237.94;232856;214;138129;-59
2023/09/19 05:32:38;;;;;;;16.20;12.50;;;;;;;20.26;79.48;98229.66;232651;214;147110;-56
2023/09/19 05:37:43;;;;;;;18.60;12.50;;;;;;;20.22;79.63;98229.05;232826;214;139055;-58
2023/09/19 05:42:49;;;;;;;17.80;13.30;;;;;;;20.11;79.64;98241.76;232712;214;138054;-59
2023/09/19 05:48:05;;;;;;;17.40;14.00;;;;;;;20.10;79.93;98248.58;232690;214;145744;-58
2023/09/19 05:53:14;;;;;;;15.20;10.70;;;;;;;20.09;80.33;98257.88;232752;215;138953;-60
2023/09/19 05:58:19;;;;;;;13.90;10.90;;;;;;;20.13;80.37;98260.69;232765;214;138099;-58
2023/09/19 06:03:24;;;;;;;14.30;11.50;;;;;;;20.21;80.32;98256.20;232816;215;146262;-59
2023/09/19 06:08:31;;;;;;;14.70;12.00;;;;;;;20.25;80.31;98262.13;232784;214;138610;-58
2023/09/19 06:13:39;;;;;;;14.10;12.10;;;;;;;20.22;80.56;98269.94;232956;214;137677;-57
2023/09/19 06:18:42;;;;;;;14.70;10.70;;;;;;;20.17;80.91;98277.73;232819;215;145852;-57
2023/09/19 06:23:50;;;;;;;12.00;9.90;;;;;;;20.15;81.38;98285.55;232749;214;140856;-58
2023/09/19 06:28:53;;;;;;;12.20;10.80;;;;;;;20.11;81.57;98283.80;232800;214;137083;-58
2023/09/19 06:33:57;;;;;;;16.20;11.20;;;;;;;20.13;81.94;98283.02;232643;214;145698;-59
2023/09/19 06:39:04;;;;;;;18.60;12.80;;;;;;;20.10;81.97;98280.81;232718;214;140190;-58
2023/09/19 06:44:07;;;;;;;13.70;10.10;;;;;;;20.10;82.48;98276.33;232887;215;137624;-59
2023/09/19 06:49:13;;;;;;;11.10;9.20;;;;;;;20.09;82.25;98279.11;232733;214;145733;-60
2023/09/19 06:54:17;;;;;;;12.10;10.60;;;;;;;20.15;82.31;98283.69;232608;214;139349;-57
2023/09/19 06:59:21;;;;;;;15.70;11.40;;;;;;;20.19;82.60;98287.02;232794;214;137474;-57
2023/09/19 07:04:26;;;;;;;14.10;9.30;;;;;;;20.19;82.77;98292.25;232618;214;145735;-58
2023/09/19 07:09:29;;;;;;;11.90;9.20;;;;;;;20.18;82.64;98297.55;232707;214;140608;-59
2023/09/19 07:14:34;;;;;;;13.70;10.40;;;;;;;20.23;82.63;98308.75;232781;214;138833;-59
2023/09/19 07:19:38;;;;;;;12.70;10.80;;;;;;;20.23;82.77;98315.88;232789;214;146587;-57
2023/09/19 07:24:42;;;;;;;12.60;11.00;;;;;;;20.24;82.71;98315.60;232732;214;139134;-60
2023/09/19 07:29:46;;;;;;;12.90;10.20;;;;;;;20.22;82.86;98313.72;232715;214;137725;-57
2023/09/19 07:34:55;;;;;;;10.80;9.30;;;;;;;20.18;82.99;98317.70;232736;215;147526;-57
2023/09/19 07:40:09;;;;;;;14.10;10.10;;;;;;;20.20;82.97;98314.07;232680;214;139645;-57
2023/09/19 07:45:16;;;;;;;12.20;9.90;;;;;;;20.28;82.75;98320.70;232812;214;137202;-59
2023/09/19 07:50:21;;;;;;;9.20;7.60;;;;;;;20.28;82.73;98323.66;232849;215;148149;-57
2023/09/19 08:10:27;;;;;;;8.40;6.80;;;;;;;20.14;83.10;98336.27;231421;224;724088;-60
2023/09/19 08:15:32;;;;;;;9.30;6.50;;;;;;;20.12;83.16;98340.96;232349;218;138507;-58
2023/09/19 08:20:38;;;;;;;5.90;5.30;;;;;;;20.12;83.26;98341.30;232936;216;144008;-58
2023/09/19 08:25:43;;;;;;;6.80;5.70;;;;;;;20.04;83.41;98340.71;232949;216;140695;-58
2023/09/19 08:30:49;;;;;;;7.20;6.50;;;;;;;19.98;84.00;98350.05;232884;215;137134;-56
2023/09/19 08:35:56;;;;;;;8.50;7.40;;;;;;;19.79;84.60;98360.17;232860;216;143739;-56
2023/09/19 08:41:08;;;;;;;7.40;6.00;;;;;;;19.53;85.18;98370.27;232836;216;141744;-59
2023/09/19 08:46:19;;;;;;;7.40;6.60;;;;;;;19.38;85.67;98381.57;232776;215;136786;-59
2023/09/19 08:51:46;;;;;;;7.30;6.30;;;;;;;19.29;86.39;98388.80;232779;215;143699;-57
2023/09/19 08:56:53;;;;;;;7.70;5.60;;;;;;;19.24;86.71;98401.42;232805;215;141172;-57
2023/09/19 09:01:58;;;;;;;7.30;5.80;;;;;;;19.19;86.91;98407.85;232938;215;137491;-59
2023/09/19 09:07:04;;;;;;;8.50;6.00;;;;;;;19.24;87.07;98414.70;232659;214;148683;-57
2023/09/19 09:12:15;;;;;;;7.30;6.50;;;;;;;19.30;86.94;98419.98;232748;214;138984;-58
2023/09/19 09:17:20;;;;;;;9.00;6.80;;;;;;;19.32;86.91;98426.25;232644;214;137890;-57
2023/09/19 09:22:24;;;;;;;10.10;8.80;;;;;;;19.39;86.75;98433.05;232781;215;147082;-57
2023/09/19 09:27:28;;;;;;;172.30;127.00;;;;;;;19.38;86.55;98438.02;232702;214;138724;-58
2023/09/19 09:32:36;;;;;;;18.00;13.80;;;;;;;19.36;87.00;98446.50;232819;214;137476;-58
2023/09/19 09:38:08;;;;;;;12.60;9.40;;;;;;;19.29;87.38;98454.11;232724;215;146916;-57
2023/09/19 09:43:46;;;;;;;10.30;8.60;;;;;;;19.22;87.70;98461.55;232654;214;141908;-59
2023/09/19 09:49:25;;;;;;;10.50;8.80;;;;;;;19.23;87.93;98476.55;232782;215;137506;-59
2023/09/19 09:54:41;;;;;;;8.20;6.90;;;;;;;19.22;88.21;98481.64;232775;215;145730;-58
2023/09/19 10:00:15;;;;;;;9.90;6.50;;;;;;;19.19;88.54;98492.02;232725;215;138779;-59
2023/09/19 10:05:22;;;;;;;7.20;5.90;;;;;;;19.29;88.57;98499.63;232737;214;138084;-58
2023/09/19 10:10:53;;;;;;;7.60;5.30;;;;;;;19.42;88.21;98504.13;232740;215;145556;-58
2023/09/19 10:16:03;;;;;;;7.50;5.00;;;;;;;19.53;87.65;98513.17;232756;215;138919;-59
2023/09/19 10:21:10;;;;;;;5.60;4.00;;;;;;;19.51;87.30;98521.93;232719;215;140132;-58
2023/09/19 10:26:18;;;;;;;4.90;3.50;;;;;;;19.47;87.30;98527.18;232958;215;147334;-59
2023/09/19 10:31:25;;;;;;;4.90;3.50;;;;;;;19.50;87.19;98532.86;232868;215;138964;-59
2023/09/19 10:36:36;;;;;;;4.90;3.60;;;;;;;19.52;87.07;98541.81;232845;214;138989;-59
2023/09/19 10:41:40;;;;;;;19.00;17.00;;;;;;;19.63;86.83;98547.98;232721;215;147231;-59
2023/09/19 10:46:45;;;;;;;4.10;3.20;;;;;;;19.68;85.77;98548.69;232726;215;141535;-57
2023/09/19 10:51:56;;;;;;;5.30;3.20;;;;;;;19.61;85.72;98550.85;232807;215;139511;-56
2023/09/19 10:57:01;;;;;;;5.10;3.60;;;;;;;19.66;85.70;98555.04;232916;215;147348;-59
2023/09/19 11:02:18;;;;;;;54.40;48.50;;;;;;;19.69;85.89;98561.79;232867;214;140227;-57
2023/09/19 11:07:25;;;;;;;41.10;33.50;;;;;;;19.72;85.98;98567.07;232798;214;137150;-58
2023/09/19 11:12:35;;;;;;;7.30;4.30;;;;;;;19.74;85.82;98573.41;232699;211;147079;-59
2023/09/19 11:17:46;;;;;;;6.80;4.30;;;;;;;19.73;85.94;98573.79;232882;215;138539;-59
2023/09/19 11:22:58;;;;;;;6.40;4.90;;;;;;;19.80;85.85;98572.82;232793;215;137423;-56
2023/09/19 11:28:08;;;;;;;6.70;4.30;;;;;;;19.81;85.87;98573.81;232716;214;146582;-58
2023/09/19 11:33:28;;;;;;;6.10;4.00;;;;;;;19.81;86.02;98573.27;232815;214;138826;-59
2023/09/19 11:38:44;;;;;;;7.00;3.90;;;;;;;19.83;85.71;98571.34;232886;214;137969;-60
2023/09/19 11:43:58;;;;;;;6.10;4.90;;;;;;;19.78;85.30;98581.80;232748;214;147062;-56
2023/09/19 11:49:15;;;;;;;7.10;4.70;;;;;;;19.79;85.53;98587.00;232761;215;138812;-59
2023/09/19 11:54:28;;;;;;;84.20;75.00;;;;;;;19.70;85.28;98588.46;232808;214;137657;-55
2023/09/19 11:59:33;;;;;;;8.20;5.20;;;;;;;19.65;85.56;98589.68;232746;214;145643;-58
2023/09/19 12:04:40;;;;;;;7.40;4.40;;;;;;;19.58;85.63;98591.13;232710;214;138821;-59
2023/09/19 12:09:49;;;;;;;6.10;3.70;;;;;;;19.58;85.62;98589.66;232753;214;137606;-59
2023/09/19 12:14:57;;;;;;;6.80;4.90;;;;;;;19.55;85.92;98597.89;232952;214;145461;-57
2023/09/19 12:20:12;;;;;;;8.80;4.50;;;;;;;19.57;86.03;98599.14;232734;214;140393;-57
2023/09/19 12:25:18;;;;;;;7.40;4.20;;;;;;;19.58;86.10;98604.81;232638;214;137480;-59
2023/09/19 12:30:29;;;;;;;;;;;;;;;19.54;86.14;98602.18;232740;214;146386;-58
2023/09/19 12:35:35;;;;;;;36.10;32.20;;;;;;;19.56;86.47;98603.05;232615;214;140532;-59
2023/09/19 12:40:42;;;;;;;7.20;4.80;;;;;;;19.60;86.31;98603.55;232740;214;137818;-59
2023/09/19 12:45:48;;;;;;;8.80;5.10;;;;;;;19.59;86.12;98604.90;232684;214;145705;-58
2023/09/19 12:51:12;;;;;;;6.20;4.10;;;;;;;19.51;86.38;98604.66;232872;215;138987;-59
2023/09/19 12:56:18;;;;;;;5.30;4.10;;;;;;;19.49;86.86;98609.77;233035;214;141367;-58
2023/09/19 13:01:27;;;;;;;5.90;4.00;;;;;;;19.51;87.09;98608.79;232759;215;147037;-57
2023/09/19 13:06:43;;;;;;;5.30;4.50;;;;;;;19.57;87.19;98608.46;232727;215;140608;-59
2023/09/19 13:11:50;;;;;;;10.20;4.70;;;;;;;19.52;87.16;98609.36;232719;215;137620;-56
2023/09/19 13:17:22;;;;;;;6.90;4.00;;;;;;;19.49;87.77;98610.08;232732;214;145666;-59
2023/09/19 13:22:48;;;;;;;93.20;67.80;;;;;;;19.53;88.12;98609.85;232759;214;138881;-60
2023/09/19 13:27:58;;;;;;;8.10;5.30;;;;;;;19.68;88.04;98615.48;232704;214;138630;-61
2023/09/19 13:33:19;;;;;;;5.60;4.10;;;;;;;19.68;87.53;98621.77;233035;214;148258;-60
2023/09/19 13:38:24;;;;;;;6.40;4.00;;;;;;;19.70;87.39;98624.60;232994;214;141650;-59
2023/09/19 13:43:28;;;;;;;5.20;3.80;;;;;;;19.71;86.84;98632.14;232849;214;137403;-60
2023/09/19 13:48:35;;;;;;;;;;;;;;;19.78;86.74;98637.66;232764;214;146053;-58
2023/09/19 13:53:39;;;;;;;36.60;29.50;;;;;;;19.82;86.40;98636.52;232898;215;140791;-60
2023/09/19 13:58:44;;;;;;;;;;;;;;;19.94;86.06;98638.66;232757;214;138462;-61
2023/09/19 14:03:51;;;;;;;7.40;5.00;;;;;;;20.04;85.24;98640.48;232838;214;145887;-59
2023/09/19 14:08:55;;;;;;;6.40;4.60;;;;;;;20.14;84.80;98642.92;232952;214;138501;-61
2023/09/19 14:14:00;;;;;;;8.30;4.50;;;;;;;20.22;84.76;98639.59;232788;214;137999;-60
2023/09/19 14:19:05;;;;;;;7.50;4.80;;;;;;;20.35;84.38;98641.00;232638;214;145847;-59
2023/09/19 14:24:11;;;;;;;11.90;7.10;;;;;;;20.42;84.08;98635.39;232636;214;139492;-59
2023/09/19 14:29:17;;;;;;;10.50;6.40;;;;;;;20.50;83.87;98639.94;232712;214;136967;-60
2023/09/19 14:34:21;;;;;;;;;;;;;;;20.58;83.47;98637.46;232763;214;146948;-60
2023/09/19 14:39:24;;;;;;;6.90;4.40;;;;;;;20.70;83.57;98639.56;232945;214;138773;-58
2023/09/19 14:44:29;;;;;;;80.90;66.60;;;;;;;20.86;82.97;98645.23;232814;214;138125;-58
2023/09/19 14:49:39;;;;;;;15.30;8.70;;;;;;;20.89;81.96;98652.60;232833;215;145745;-60
2023/09/19 14:54:46;;;;;;;11.90;7.50;;;;;;;20.93;81.54;98659.19;232756;214;140447;-59
2023/09/19 14:59:52;;;;;;;12.30;5.80;;;;;;;20.95;80.87;98659.08;232684;214;137807;-57
2023/09/19 15:04:57;;;;;;;14.70;12.50;;;;;;;21.00;80.40;98662.16;232778;215;145829;-61
2023/09/19 15:10:09;;;;;;;10.30;5.90;;;;;;;20.95;79.64;98659.36;232606;214;138830;-56
2023/09/19 15:15:15;;;;;;;9.30;5.40;;;;;;;20.87;79.46;98664.88;232780;214;137074;-59
2023/09/19 15:20:19;;;;;;;8.30;5.40;;;;;;;20.77;79.54;98671.08;232853;215;145600;-56
2023/09/19 15:25:25;;;;;;;6.80;4.70;;;;;;;20.75;79.85;98667.01;232695;214;139509;-57
2023/09/19 15:30:30;;;;;;;6.40;5.00;;;;;;;20.75;79.44;98667.86;232782;214;137804;-58
2023/09/19 15:35:36;;;;;;;6.70;4.60;;;;;;;20.72;79.33;98663.18;232686;214;145752;-59
2023/09/19 15:40:47;;;;;;;7.80;4.40;;;;;;;20.68;79.11;98663.36;232673;214;138952;-61
2023/09/19 15:45:51;;;;;;;6.40;4.10;;;;;;;20.61;79.21;98663.89;232716;214;138196;-56
2023/09/19 15:50:55;;;;;;;7.90;4.30;;;;;;;20.58;79.42;98669.54;232868;214;147123;-58
2023/09/19 15:56:10;;;;;;;7.50;4.80;;;;;;;20.59;79.59;98670.52;232886;214;140485;-57
2023/09/19 16:01:16;;;;;;;11.80;7.20;;;;;;;20.66;79.74;98677.73;232785;214;137747;-57
2023/09/19 16:06:23;;;;;;;78.80;60.40;;;;;;;20.70;79.75;98684.20;232753;214;145916;-56
2023/09/19 16:11:29;;;;;;;6.90;5.00;;;;;;;20.74;79.72;98690.37;232682;214;140566;-57
2023/09/19 16:16:34;;;;;;;;;;;;;;;20.68;79.51;98687.35;232764;214;140722;-58
2023/09/19 16:21:40;;;;;;;11.40;8.00;;;;;;;20.68;79.67;98686.67;232954;212;147397;-58
2023/09/19 16:26:45;;;;;;;9.50;5.80;;;;;;;20.74;80.42;98680.90;232901;214;138959;-58
2023/09/19 16:31:50;;;;;;;8.90;4.30;;;;;;;20.78;79.88;98678.71;232784;215;137358;-57
2023/09/19 16:36:55;;;;;;;5.40;3.50;;;;;;;20.65;79.01;98679.58;232645;214;147408;-58
2023/09/19 16:42:00;;;;;;;3.90;2.50;;;;;;;20.56;78.78;98678.23;232795;215;140383;-61
2023/09/19 16:47:21;;;;;;;4.30;2.80;;;;;;;20.50;77.87;98690.20;232651;214;137296;-58
2023/09/19 16:52:26;;;;;;;7.30;4.00;;;;;;;20.45;78.29;98684.56;232650;214;147422;-60
2023/09/19 16:57:31;;;;;;;5.00;3.30;;;;;;;20.56;78.30;98684.89;232586;214;138833;-60
2023/09/19 17:02:36;;;;;;;7.50;3.20;;;;;;;20.66;78.21;98690.19;232744;214;137163;-61
2023/09/19 17:07:40;;;;;;;;;;;;;;;20.71;77.91;98696.18;232570;214;149177;-60
2023/09/19 17:12:46;;;;;;;44.20;39.30;;;;;;;20.80;76.97;98708.09;232590;214;139139;-60
2023/09/19 17:17:51;;;;;;;7.40;2.90;;;;;;;20.69;75.07;98714.52;232653;213;138232;-59
2023/09/19 17:22:56;;;;;;;3.60;2.50;;;;;;;20.50;74.54;98720.38;232781;215;148343;-57
2023/09/19 17:28:02;;;;;;;4.30;2.20;;;;;;;20.32;74.75;98722.61;232581;214;139649;-57
2023/09/19 17:33:07;;;;;;;5.00;2.80;;;;;;;20.19;75.04;98732.80;232915;214;137889;-59
2023/09/19 17:38:10;;;;;;;5.20;2.30;;;;;;;20.03;75.42;98743.19;232720;214;147651;-60
2023/09/19 17:43:14;;;;;;;5.00;2.60;;;;;;;19.90;76.06;98750.90;232756;214;139305;-60
2023/09/19 17:48:20;;;;;;;7.00;2.60;;;;;;;19.80;76.41;98757.91;232718;214;138821;-58
2023/09/19 17:53:26;;;;;;;7.90;3.00;;;;;;;19.74;76.72;98759.80;232735;214;149380;-60
2023/09/19 17:58:32;;;;;;;6.40;2.90;;;;;;;19.71;77.08;98762.08;232669;214;138686;-60
2023/09/19 18:03:40;;;;;;;4.60;3.00;;;;;;;19.76;78.40;98766.42;232863;214;137480;-61
2023/09/19 18:08:45;;;;;;;5.50;2.60;;;;;;;19.94;79.06;98772.49;232773;215;147415;-59
2023/09/19 18:13:54;;;;;;;;;;;;;;;20.08;78.67;98778.27;232709;215;138842;-59
2023/09/19 18:19:01;;;;;;;6.10;3.20;;;;;;;20.06;76.97;98787.14;232788;214;132964;-61
2023/09/19 18:24:13;;;;;;;8.20;5.10;;;;;;;19.95;76.86;98793.77;232690;214;148974;-58
2023/09/19 18:29:18;;;;;;;7.50;3.10;;;;;;;19.89;76.76;98801.81;232668;215;142496;-56
2023/09/19 18:34:22;;;;;;;5.60;3.20;;;;;;;19.78;76.50;98812.39;232819;214;137396;-56
2023/09/19 18:39:29;;;;;;;6.10;2.60;;;;;;;19.66;76.60;98818.38;232852;214;147660;-61
2023/09/19 18:44:37;;;;;;;8.00;3.60;;;;;;;19.55;77.02;98821.41;232705;214;139120;-57
2023/09/19 18:49:43;;;;;;;6.20;3.40;;;;;;;19.51;77.09;98825.44;232649;214;137756;-58
2023/09/19 18:54:49;;;;;;;82.90;69.00;;;;;;;19.49;77.23;98826.92;232710;215;147728;-59
2023/09/19 18:59:54;;;;;;;5.60;3.70;;;;;;;19.47;77.19;98830.02;232611;214;138866;-59
2023/09/19 19:04:59;;;;;;;6.40;3.00;;;;;;;19.38;77.09;98834.70;232691;215;138022;-59
2023/09/19 19:10:05;;;;;;;6.10;3.00;;;;;;;19.28;77.10;98834.98;232643;215;147640;-57
2023/09/19 19:15:09;;;;;;;7.90;3.30;;;;;;;19.22;77.35;98836.71;232746;214;139000;-59
2023/09/19 19:20:19;;;;;;;8.00;3.10;;;;;;;19.20;77.47;98836.23;232698;214;137779;-59
2023/09/19 19:25:26;;;;;;;5.00;2.80;;;;;;;19.13;77.49;98836.88;232782;215;147645;-57
2023/09/19 19:30:31;;;;;;;10.90;5.50;;;;;;;19.05;77.55;98844.73;232641;214;140449;-58
2023/09/19 19:35:37;;;;;;;;;;;;;;;18.99;77.61;98848.16;232760;214;138663;-59
2023/09/19 19:40:43;;;;;;;6.00;2.80;;;;;;;18.96;77.72;98850.80;232657;214;147634;-59
2023/09/19 19:45:56;;;;;;;5.20;3.40;;;;;;;18.94;77.87;98856.98;232819;214;139250;-58
2023/09/19 19:51:09;;;;;;;14.20;10.80;;;;;;;18.99;78.23;98859.52;234852;214;246803;-57
2023/09/19 19:56:13;;;;;;;8.80;4.00;;;;;;;19.02;77.52;98857.55;235015;214;147556;-62
2023/09/19 20:01:17;;;;;;;6.00;2.80;;;;;;;18.98;77.70;98858.91;234710;214;140184;-60
2023/09/19 20:10:29;;;;;;;6.10;2.90;;;;;;;18.94;77.67;98860.39;231406;224;723765;-59
2023/09/19 20:15:35;;;;;;;6.50;3.10;;;;;;;18.93;78.00;98864.04;232866;217;137348;-59
2023/09/19 20:20:40;;;;;;;6.70;3.30;;;;;;;18.96;77.99;98865.27;232696;217;143901;-58
2023/09/19 20:25:46;;;;;;;5.50;3.40;;;;;;;18.94;77.97;98866.49;232862;216;139404;-58
2023/09/19 20:30:50;;;;;;;6.30;3.00;;;;;;;18.92;78.21;98870.25;232854;216;137653;-57
2023/09/19 20:36:03;;;;;;;6.50;3.00;;;;;;;18.88;78.28;98874.77;232928;216;143730;-61
2023/09/19 20:41:08;;;;;;;4.80;3.10;;;;;;;18.89;78.30;98877.16;232876;216;139163;-60
2023/09/19 20:46:16;;;;;;;7.10;3.60;;;;;;;18.86;78.23;98877.67;232853;216;137099;-58
2023/09/19 20:51:25;;;;;;;6.20;3.50;;;;;;;18.87;78.40;98880.98;233016;216;144322;-59
2023/09/19 20:56:31;;;;;;;4.90;3.20;;;;;;;18.87;78.41;98885.20;232913;216;138811;-59
2023/09/19 21:01:35;;;;;;;;;;;;;;;18.81;78.23;98884.66;232857;215;137067;-59
2023/09/19 21:06:45;;;;;;;4.80;3.70;;;;;;;18.81;78.45;98886.27;232888;215;147317;-59
2023/09/19 21:11:51;;;;;;;5.90;3.60;;;;;;;18.77;78.46;98891.92;232827;216;142231;-57
2023/09/19 21:16:58;;;;;;;8.00;4.10;;;;;;;18.73;78.63;98892.11;232911;216;136374;-58
2023/09/19 21:22:03;;;;;;;6.20;4.00;;;;;;;18.68;78.60;98891.65;232990;216;146550;-57
2023/09/19 21:27:08;;;;;;;8.70;3.60;;;;;;;18.58;78.74;98891.90;232770;216;140488;-58
2023/09/19 21:32:14;;;;;;;5.80;3.30;;;;;;;18.51;79.12;98890.07;232683;214;138135;-60
2023/09/19 21:37:19;;;;;;;7.70;3.70;;;;;;;18.51;79.32;98889.39;232729;214;146944;-58
2023/09/19 21:42:25;;;;;;;5.50;3.70;;;;;;;18.51;79.14;98890.81;232743;214;139768;-58
2023/09/19 21:47:30;;;;;;;7.40;3.60;;;;;;;18.48;79.31;98896.35;232638;214;137612;-58
2023/09/19 21:52:35;;;;;;;6.90;5.40;;;;;;;18.41;79.40;98894.59;232709;214;145547;-59
2023/09/19 21:57:40;;;;;;;;;;;;;;;18.37;79.59;98888.34;232780;215;138679;-59
2023/09/19 22:02:45;;;;;;;5.10;3.80;;;;;;;18.38;79.68;98886.70;232748;214;131121;-58
2023/09/19 22:07:51;;;;;;;5.50;3.70;;;;;;;18.42;79.58;98886.13;232804;215;145442;-58
2023/09/19 22:12:59;;;;;;;6.20;3.90;;;;;;;18.42;79.56;98887.16;232667;214;140013;-58
2023/09/19 22:18:06;;;;;;;6.80;4.00;;;;;;;18.38;79.61;98887.61;232647;214;140899;-58
2023/09/19 22:23:13;;;;;;;6.00;3.60;;;;;;;18.31;79.73;98890.27;232630;214;148122;-58
2023/09/19 22:28:18;;;;;;;6.20;3.60;;;;;;;18.28;80.13;98887.29;232731;215;138817;-59
2023/09/19 22:33:22;;;;;;;7.40;4.00;;;;;;;18.27;80.13;98880.90;232873;214;137920;-59
2023/09/19 22:38:28;;;;;;;8.40;4.10;;;;;;;18.27;80.26;98879.65;232690;215;145597;-60
2023/09/19 22:43:34;;;;;;;5.60;4.30;;;;;;;18.25;80.18;98881.33;232636;215;139462;-60
2023/09/19 22:48:39;;;;;;;8.40;3.90;;;;;;;18.19;80.26;98879.31;232685;214;137424;-58
2023/09/19 22:53:44;;;;;;;8.80;3.70;;;;;;;18.15;80.41;98889.45;232705;214;146253;-57
2023/09/19 22:58:50;;;;;;;10.80;4.50;;;;;;;18.12;80.38;98889.89;232606;214;139175;-59
2023/09/19 23:04:14;;;;;;;9.20;4.80;;;;;;;18.08;80.33;98895.48;232809;214;137668;-59
2023/09/19 23:09:24;;;;;;;8.80;4.40;;;;;;;18.03;80.29;98895.64;232733;214;149897;-59
2023/09/19 23:14:38;;;;;;;7.40;4.50;;;;;;;17.98;80.44;98900.89;232728;214;141250;-59
2023/09/19 23:19:50;;;;;;;9.10;3.90;;;;;;;17.94;80.72;98900.45;232730;214;137869;-57
2023/09/19 23:25:13;;;;;;;7.40;4.50;;;;;;;17.93;80.70;98904.30;232812;215;146662;-59
2023/09/19 23:30:22;;;;;;;8.10;4.90;;;;;;;17.96;80.69;98903.23;232763;214;139073;-59
2023/09/19 23:35:29;;;;;;;7.00;4.60;;;;;;;17.99;80.48;98901.40;232808;214;137215;-60
2023/09/19 23:40:36;;;;;;;6.40;4.20;;;;;;;17.95;80.47;98901.75;232858;215;146300;-61
2023/09/19 23:45:41;;;;;;;7.20;4.40;;;;;;;17.93;80.47;98905.38;232784;214;141457;-59
2023/09/19 23:50:48;;;;;;;8.10;4.10;;;;;;;17.96;80.47;98905.09;232786;214;138072;-59
2023/09/19 23:55:52;;;;;;;7.40;4.80;;;;;;;17.95;80.25;98913.77;232873;215;145884;-59
